Time;durP1;ratioP1;P1;durP2;ratioP2;P2;SDS_P1;SDS_P2;PMS_P1;PMS_P2;Temp;Humidity;BMP_temperature;BMP_pressure;BME280_temperature;BME280_humidity;BME280_pressure;Samples;Min_cycle;Max_cycle;Signal;HPM_P1;HPM_P2
2023/04/17 00:00:36;;;;;;;7.67;6.53;;;10.80;99.90;;;;;;4997337;28;20226;-71
2023/04/17 00:03:02;;;;;;;12.97;7.90;;;10.80;99.90;;;;;;5000618;28;20242;-69
2023/04/17 00:05:30;;;;;;;8.87;6.50;;;10.80;99.90;;;;;;5010748;28;20493;-70
2023/04/17 00:07:58;;;;;;;11.50;8.13;;;10.80;99.90;;;;;;5003963;28;20619;-71
2023/04/17 00:10:24;;;;;;;10.87;7.83;;;10.80;99.90;;;;;;5007341;28;20464;-71
2023/04/17 00:12:50;;;;;;;10.50;7.87;;;10.80;99.90;;;;;;4990432;28;20465;-70
2023/04/17 00:15:16;;;;;;;12.60;7.20;;;10.80;99.90;;;;;;5007433;28;20316;-71
2023/04/17 00:17:41;;;;;;;10.60;7.23;;;10.80;99.90;;;;;;4986219;28;20213;-69
2023/04/17 00:20:09;;;;;;;10.07;7.60;;;10.80;99.90;;;;;;5005290;28;20295;-68
2023/04/17 00:22:36;;;;;;;8.17;6.83;;;10.70;99.90;;;;;;5008700;28;20218;-68
2023/04/17 00:25:02;;;;;;;8.97;6.67;;;10.70;99.90;;;;;;5002744;28;20488;-69
2023/04/17 00:27:28;;;;;;;8.70;6.67;;;10.70;99.90;;;;;;5007851;28;20475;-69
2023/04/17 00:29:54;;;;;;;8.40;7.20;;;10.70;99.90;;;;;;5002769;28;20464;-70
2023/04/17 00:32:19;;;;;;;8.30;6.70;;;10.80;99.90;;;;;;5004450;28;20214;-70
2023/04/17 00:34:45;;;;;;;10.40;7.53;;;10.80;99.90;;;;;;5004900;28;20717;-71
2023/04/17 00:37:11;;;;;;;12.13;7.40;;;10.80;99.90;;;;;;5001108;28;20754;-71
2023/04/17 00:39:36;;;;;;;10.50;6.93;;;10.80;99.90;;;;;;4988879;28;20213;-70
2023/04/17 00:42:02;;;;;;;8.33;6.90;;;10.90;99.90;;;;;;4998277;28;20276;-70
2023/04/17 00:44:28;;;;;;;9.20;6.70;;;10.90;99.90;;;;;;4989330;28;20629;-71
2023/04/17 00:46:54;;;;;;;12.20;7.10;;;11.00;99.90;;;;;;5000158;28;20228;-72
2023/04/17 00:49:21;;;;;;;8.30;6.03;;;11.00;99.90;;;;;;4985880;28;20269;-71
2023/04/17 00:51:47;;;;;;;11.23;6.70;;;11.00;99.90;;;;;;5001065;28;20477;-71
2023/04/17 00:54:14;;;;;;;7.87;5.93;;;11.00;99.90;;;;;;4999182;28;20453;-71
2023/04/17 00:56:42;;;;;;;9.90;6.20;;;11.00;99.90;;;;;;5004654;28;20519;-71
2023/04/17 00:59:11;;;;;;;9.00;6.30;;;11.00;99.90;;;;;;5000746;28;20470;-71
2023/04/17 01:01:37;;;;;;;9.90;6.80;;;11.00;99.90;;;;;;5003258;28;20469;-71
2023/04/17 01:04:04;;;;;;;10.63;6.90;;;11.00;99.90;;;;;;5000919;28;20840;-71
2023/04/17 01:06:30;;;;;;;8.53;6.27;;;11.00;99.90;;;;;;5000730;28;20692;-71
2023/04/17 01:08:56;;;;;;;10.07;7.13;;;11.00;99.90;;;;;;4998758;28;20501;-71
2023/04/17 01:11:22;;;;;;;9.80;6.90;;;11.00;99.90;;;;;;4985528;28;20958;-71
2023/04/17 01:13:50;;;;;;;10.80;7.00;;;11.00;99.90;;;;;;4986935;28;20525;-70
2023/04/17 01:16:17;;;;;;;8.07;6.20;;;11.00;99.90;;;;;;5001579;28;20241;-70
2023/04/17 01:18:43;;;;;;;13.80;6.60;;;11.00;99.90;;;;;;5002105;28;20576;-70
2023/04/17 01:21:09;;;;;;;9.60;6.77;;;11.00;99.90;;;;;;4999034;28;20480;-70
2023/04/17 01:23:50;;;;;;;9.07;7.03;;;11.00;99.90;;;;;;5004575;28;20962;-70
2023/04/17 01:26:19;;;;;;;10.43;7.17;;;11.00;99.90;;;;;;5003831;28;20476;-71
2023/04/17 01:28:50;;;;;;;9.30;7.07;;;10.90;99.90;;;;;;5001086;28;20452;-70
2023/04/17 01:31:16;;;;;;;11.20;7.80;;;10.90;99.90;;;;;;4987633;28;20472;-69
2023/04/17 01:33:42;;;;;;;10.40;6.43;;;10.80;99.90;;;;;;5000718;28;20473;-71
2023/04/17 01:36:08;;;;;;;9.70;6.43;;;10.90;99.90;;;;;;4984179;28;20477;-71
2023/04/17 01:38:33;;;;;;;10.27;7.40;;;10.90;99.90;;;;;;4990916;28;20218;-70
2023/04/17 01:41:07;;;;;;;12.30;8.70;;;10.90;99.90;;;;;;4999956;28;20747;-70
2023/04/17 01:43:32;;;;;;;12.47;9.00;;;10.90;99.90;;;;;;4988868;28;20210;-71
2023/04/17 01:45:58;;;;;;;10.77;7.67;;;10.80;99.90;;;;;;4997262;28;20457;-69
2023/04/17 01:48:24;;;;;;;17.27;9.37;;;10.80;99.90;;;;;;5001237;28;20225;-70
2023/04/17 01:50:49;;;;;;;11.40;8.17;;;10.80;99.90;;;;;;4986539;28;20225;-70
2023/04/17 01:53:15;;;;;;;11.80;8.63;;;10.80;99.90;;;;;;5000096;28;20230;-70
2023/04/17 01:55:41;;;;;;;15.20;9.20;;;10.80;99.90;;;;;;4982804;28;20317;-69
2023/04/17 01:58:06;;;;;;;12.47;9.10;;;10.80;99.90;;;;;;4988909;28;20211;-71
2023/04/17 02:00:32;;;;;;;12.40;8.03;;;10.80;99.90;;;;;;4987630;28;20305;-69
2023/04/17 02:02:57;;;;;;;17.43;8.93;;;10.80;99.90;;;;;;4999316;28;20324;-69
2023/04/17 02:05:23;;;;;;;14.50;9.87;;;10.80;99.90;;;;;;5004285;28;20291;-71
2023/04/17 02:07:50;;;;;;;14.40;9.77;;;10.80;99.90;;;;;;4998122;28;20302;-70
2023/04/17 02:10:16;;;;;;;17.80;9.57;;;10.70;99.90;;;;;;4997757;28;20246;-71
2023/04/17 02:12:41;;;;;;;14.17;9.30;;;10.70;99.90;;;;;;5001969;28;20540;-70
2023/04/17 02:15:07;;;;;;;12.47;8.27;;;10.70;99.90;;;;;;4999413;28;20226;-71
2023/04/17 02:17:33;;;;;;;11.17;8.63;;;10.80;99.90;;;;;;4991963;28;20265;-71
2023/04/17 02:19:58;;;;;;;11.80;8.17;;;10.70;99.90;;;;;;4996788;28;20469;-69
2023/04/17 02:22:24;;;;;;;14.50;9.50;;;10.70;99.90;;;;;;4988234;28;20625;-70
2023/04/17 02:24:50;;;;;;;10.90;8.33;;;10.80;99.90;;;;;;5009691;28;20636;-71
2023/04/17 02:27:16;;;;;;;12.10;8.77;;;10.80;99.90;;;;;;4999244;28;20453;-71
2023/04/17 02:29:42;;;;;;;12.03;8.83;;;10.70;99.90;;;;;;4997346;28;20245;-69
2023/04/17 02:32:08;;;;;;;14.70;11.00;;;10.70;99.90;;;;;;4999263;28;20453;-71
2023/04/17 02:34:33;;;;;;;15.27;9.67;;;10.70;99.90;;;;;;5002714;28;20206;-70
2023/04/17 02:36:59;;;;;;;16.70;9.70;;;10.70;99.90;;;;;;4982040;28;20268;-71
2023/04/17 02:39:26;;;;;;;12.87;9.00;;;10.70;99.90;;;;;;4984265;28;20217;-70
2023/04/17 02:41:51;;;;;;;15.23;9.40;;;10.70;99.90;;;;;;4997340;28;20480;-72
2023/04/17 02:44:17;;;;;;;13.80;9.80;;;10.70;99.90;;;;;;4987036;28;20255;-70
2023/04/17 02:46:43;;;;;;;15.67;10.13;;;10.70;99.90;;;;;;4992062;28;20235;-70
2023/04/17 02:49:08;;;;;;;11.63;9.47;;;10.70;99.90;;;;;;4993224;28;20229;-71
2023/04/17 02:51:34;;;;;;;14.33;9.27;;;10.70;99.90;;;;;;5001698;28;20218;-71
2023/04/17 02:54:00;;;;;;;16.00;9.90;;;10.60;99.90;;;;;;4998920;28;20467;-71
2023/04/17 02:56:26;;;;;;;14.67;9.70;;;10.50;99.90;;;;;;4982170;28;20222;-71
2023/04/17 02:58:52;;;;;;;13.80;9.30;;;10.50;99.90;;;;;;4996950;28;20229;-71
2023/04/17 03:01:17;;;;;;;17.63;9.97;;;10.50;99.90;;;;;;4991787;28;20225;-71
2023/04/17 03:03:46;;;;;;;16.67;9.60;;;10.40;99.90;;;;;;4997609;28;20226;-71
2023/04/17 03:06:13;;;;;;;13.27;9.50;;;10.40;99.90;;;;;;5000948;28;20461;-70
2023/04/17 03:08:39;;;;;;;13.47;9.40;;;10.40;99.90;;;;;;4998930;28;20475;-71
2023/04/17 03:11:05;;;;;;;15.33;9.70;;;10.50;99.90;;;;;;5013509;28;20210;-70
2023/04/17 03:13:37;;;;;;;16.87;10.17;;;10.50;99.90;;;;;;4997081;28;20556;-71
2023/04/17 03:16:04;;;;;;;14.40;9.77;;;10.50;99.90;;;;;;4998267;28;20999;-70
2023/04/17 03:18:34;;;;;;;14.90;10.53;;;10.50;99.90;;;;;;5005654;28;20457;-69
2023/04/17 03:21:00;;;;;;;13.90;9.40;;;10.50;99.90;;;;;;4998444;28;20469;-71
2023/04/17 03:23:26;;;;;;;16.40;10.47;;;10.50;99.90;;;;;;5002825;28;20507;-70
2023/04/17 03:25:52;;;;;;;21.13;10.43;;;10.40;99.90;;;;;;5000240;28;20236;-74
2023/04/17 03:28:18;;;;;;;17.97;10.07;;;10.40;99.90;;;;;;5001012;28;20296;-70
2023/04/17 03:30:43;;;;;;;13.67;9.27;;;10.30;99.90;;;;;;4985164;28;20556;-70
2023/04/17 03:33:09;;;;;;;13.83;10.33;;;10.30;99.90;;;;;;4982839;28;20226;-69
2023/04/17 03:35:36;;;;;;;13.10;9.37;;;10.30;99.90;;;;;;5005041;28;20225;-70
2023/04/17 03:38:05;;;;;;;15.30;11.20;;;10.30;99.90;;;;;;4996776;28;20688;-71
2023/04/17 03:40:30;;;;;;;13.50;9.60;;;10.30;99.90;;;;;;5002760;28;20532;-71
2023/04/17 03:42:56;;;;;;;14.83;10.07;;;10.30;99.90;;;;;;4998476;28;20223;-71
2023/04/17 03:45:22;;;;;;;19.67;10.40;;;10.30;99.90;;;;;;4996671;28;20210;-71
2023/04/17 03:47:48;;;;;;;16.23;10.73;;;10.40;99.90;;;;;;4984331;28;20463;-69
2023/04/17 03:50:14;;;;;;;15.47;10.13;;;10.40;99.90;;;;;;4983644;28;20226;-71
2023/04/17 03:52:47;;;;;;;12.70;9.83;;;10.40;99.90;;;;;;4994325;28;20217;-70
2023/04/17 03:55:13;;;;;;;14.13;9.83;;;10.40;99.90;;;;;;4999085;28;20465;-71
2023/04/17 03:57:40;;;;;;;17.37;11.13;;;10.40;99.90;;;;;;5001797;28;20218;-69
2023/04/17 04:00:12;;;;;;;16.80;10.73;;;10.40;99.90;;;;;;5000525;28;20844;-70
2023/04/17 04:02:45;;;;;;;16.47;11.00;;;10.30;99.90;;;;;;5000131;28;20614;-71
2023/04/17 04:05:12;;;;;;;17.77;11.57;;;10.30;99.90;;;;;;4999101;28;20467;-71
2023/04/17 04:07:38;;;;;;;16.87;10.93;;;10.20;99.90;;;;;;5001886;28;20465;-70
2023/04/17 04:10:04;;;;;;;16.80;11.10;;;10.30;99.90;;;;;;5004802;28;20222;-71
2023/04/17 04:12:30;;;;;;;15.83;10.63;;;10.30;99.90;;;;;;4988253;28;20237;-70
2023/04/17 04:14:56;;;;;;;16.03;11.47;;;10.30;99.90;;;;;;5001466;28;20460;-71
2023/04/17 04:17:22;;;;;;;14.70;10.03;;;10.20;99.90;;;;;;4998687;28;20210;-70
2023/04/17 04:19:47;;;;;;;17.07;11.87;;;10.30;99.90;;;;;;5001838;28;20506;-71
2023/04/17 04:22:13;;;;;;;19.63;10.87;;;10.30;99.90;;;;;;4984642;28;20223;-70
2023/04/17 04:24:46;;;;;;;19.43;12.00;;;10.30;99.90;;;;;;4986728;28;20218;-69
2023/04/17 04:27:16;;;;;;;16.63;10.80;;;10.30;99.90;;;;;;4999308;28;20966;-69
2023/04/17 04:29:47;;;;;;;18.03;11.50;;;10.30;99.90;;;;;;5004326;28;20581;-69
2023/04/17 04:32:15;;;;;;;13.87;10.30;;;10.30;99.90;;;;;;4985710;28;20445;-71
2023/04/17 04:34:44;;;;;;;17.27;11.10;;;10.30;99.90;;;;;;5004836;28;20453;-70
2023/04/17 04:37:14;;;;;;;13.97;10.80;;;10.30;99.90;;;;;;4993623;28;20488;-70
2023/04/17 04:39:42;;;;;;;18.57;12.77;;;10.40;99.90;;;;;;4991650;28;20248;-71
2023/04/17 04:42:11;;;;;;;16.60;11.77;;;10.40;99.90;;;;;;4985706;28;20484;-70
2023/04/17 04:44:52;;;;;;;15.27;10.80;;;10.40;99.90;;;;;;5002180;28;20453;-72
2023/04/17 04:47:19;;;;;;;18.30;12.47;;;10.40;99.90;;;;;;5004269;28;20995;-70
2023/04/17 04:49:46;;;;;;;16.37;11.97;;;10.40;99.90;;;;;;5001020;28;20828;-70
2023/04/17 04:52:13;;;;;;;15.83;11.00;;;10.30;99.90;;;;;;5001330;28;20468;-69
2023/04/17 04:54:39;;;;;;;15.67;10.63;;;10.40;99.90;;;;;;5004800;28;20818;-71
2023/04/17 04:57:05;;;;;;;19.07;12.20;;;10.30;99.90;;;;;;4985120;28;20226;-70
2023/04/17 04:59:31;;;;;;;18.97;9.87;;;10.30;99.90;;;;;;5004910;28;20695;-70
2023/04/17 05:02:13;;;;;;;13.20;9.93;;;10.30;99.90;;;;;;5002996;28;20439;-70
2023/04/17 05:04:39;;;;;;;17.03;11.83;;;10.20;99.90;;;;;;4985099;28;20480;-70
2023/04/17 05:07:06;;;;;;;15.97;11.43;;;10.20;99.90;;;;;;5000116;28;20209;-71
2023/04/17 05:09:34;;;;;;;17.63;11.77;;;10.30;99.90;;;;;;4986218;28;20317;-68
2023/04/17 05:12:00;;;;;;;16.23;11.10;;;10.30;99.90;;;;;;5010781;28;20550;-70
2023/04/17 05:14:27;;;;;;;19.40;11.83;;;10.30;99.90;;;;;;5001655;28;20243;-71
2023/04/17 05:16:54;;;;;;;20.40;12.27;;;10.20;99.90;;;;;;4980589;28;20553;-70
2023/04/17 05:19:20;;;;;;;16.57;10.87;;;10.20;99.90;;;;;;4995110;28;21044;-69
2023/04/17 05:22:06;;;;;;;17.77;11.63;;;10.20;99.90;;;;;;5000512;28;20884;-70
2023/04/17 05:24:39;;;;;;;17.50;12.90;;;10.20;99.90;;;;;;4982281;28;20468;-71
2023/04/17 05:27:05;;;;;;;20.03;12.67;;;10.20;99.90;;;;;;5000548;28;20465;-71
2023/04/17 05:29:31;;;;;;;21.87;12.50;;;10.30;99.90;;;;;;5002438;28;20475;-70
2023/04/17 05:31:58;;;;;;;22.30;13.77;;;10.30;99.90;;;;;;4995765;28;20449;-71
2023/04/17 05:34:45;;;;;;;20.17;12.33;;;10.30;99.90;;;;;;5001612;28;20515;-71
2023/04/17 05:37:12;;;;;;;15.17;11.27;;;10.30;99.90;;;;;;5000498;28;20507;-70
2023/04/17 05:39:38;;;;;;;17.40;11.60;;;10.40;99.90;;;;;;5003594;28;20468;-70
2023/04/17 05:42:04;;;;;;;23.97;13.47;;;10.40;99.90;;;;;;4996215;28;20223;-70
2023/04/17 05:44:30;;;;;;;17.97;12.97;;;10.40;99.90;;;;;;5003901;28;20257;-71
2023/04/17 05:46:58;;;;;;;20.90;12.87;;;10.40;99.90;;;;;;4983158;28;20222;-70
2023/04/17 05:49:25;;;;;;;20.83;12.40;;;10.40;99.90;;;;;;4995798;28;20496;-69
2023/04/17 05:51:52;;;;;;;21.00;13.67;;;10.50;99.90;;;;;;4993180;28;20841;-70
2023/04/17 05:54:17;;;;;;;20.70;13.33;;;10.50;99.90;;;;;;4980054;28;20472;-71
2023/04/17 05:56:45;;;;;;;19.20;13.00;;;10.50;99.90;;;;;;4991516;28;20476;-69
2023/04/17 05:59:11;;;;;;;19.77;12.47;;;10.50;99.90;;;;;;4999575;28;20469;-71
2023/04/17 06:01:36;;;;;;;18.00;12.27;;;10.50;99.90;;;;;;5003385;28;20220;-70
2023/04/17 06:04:02;;;;;;;20.03;13.47;;;10.60;99.90;;;;;;4983561;28;20218;-70
2023/04/17 06:06:28;;;;;;;21.63;12.97;;;10.60;99.90;;;;;;4988514;28;20716;-71
2023/04/17 06:08:56;;;;;;;20.10;13.10;;;10.60;99.90;;;;;;4995374;28;20229;-71
2023/04/17 06:11:23;;;;;;;20.27;13.03;;;10.60;99.90;;;;;;5000192;28;20460;-70
2023/04/17 06:13:48;;;;;;;19.80;12.40;;;10.60;99.90;;;;;;5000059;28;20234;-71
2023/04/17 06:16:16;;;;;;;14.53;11.00;;;10.70;99.90;;;;;;4996640;28;20554;-70
2023/04/17 06:18:41;;;;;;;19.83;12.60;;;10.60;99.90;;;;;;4995363;28;20512;-69
2023/04/17 06:21:07;;;;;;;22.50;13.33;;;10.70;99.90;;;;;;4990288;28;20253;-71
2023/04/17 06:23:33;;;;;;;20.70;12.53;;;10.70;99.90;;;;;;5002023;28;20222;-71
2023/04/17 06:25:58;;;;;;;19.23;12.50;;;10.70;99.90;;;;;;4987561;28;20368;-69
2023/04/17 06:28:24;;;;;;;18.77;12.57;;;10.80;99.90;;;;;;5000523;28;20250;-71
2023/04/17 06:30:52;;;;;;;19.70;12.73;;;10.80;99.90;;;;;;4990424;28;20314;-73
2023/04/17 06:33:18;;;;;;;18.00;12.93;;;10.80;99.90;;;;;;5001098;28;20516;-70
2023/04/17 06:35:44;;;;;;;22.07;13.70;;;10.80;99.90;;;;;;5000730;28;20228;-68
2023/04/17 06:38:17;;;;;;;17.70;12.40;;;10.80;99.90;;;;;;5000965;28;20283;-72
2023/04/17 06:40:43;;;;;;;19.57;12.43;;;10.90;99.90;;;;;;4983481;28;20474;-71
2023/04/17 06:43:10;;;;;;;20.70;13.40;;;10.90;99.90;;;;;;4998494;28;20222;-70
2023/04/17 06:45:41;;;;;;;21.80;12.73;;;10.90;99.90;;;;;;4999178;28;20827;-71
2023/04/17 06:48:06;;;;;;;18.93;13.20;;;11.00;99.90;;;;;;4982753;28;20579;-71
2023/04/17 06:50:32;;;;;;;21.07;13.40;;;11.00;99.90;;;;;;4985354;28;20551;-71
2023/04/17 06:52:58;;;;;;;20.00;12.13;;;11.10;99.90;;;;;;4980839;28;20376;-70
2023/04/17 06:55:23;;;;;;;20.60;13.47;;;11.00;99.90;;;;;;4989572;28;20228;-71
2023/04/17 06:57:49;;;;;;;19.73;12.60;;;11.10;99.90;;;;;;5003068;28;20228;-70
2023/04/17 07:00:15;;;;;;;17.23;12.03;;;11.00;99.90;;;;;;4998897;28;20217;-71
2023/04/17 07:02:40;;;;;;;21.67;13.53;;;11.10;99.90;;;;;;5002159;28;20222;-70
2023/04/17 07:05:06;;;;;;;19.13;12.00;;;11.10;99.90;;;;;;4996713;28;20469;-72
2023/04/17 07:07:33;;;;;;;19.70;12.60;;;11.00;99.90;;;;;;4982429;28;20228;-70
2023/04/17 07:09:59;;;;;;;18.00;12.27;;;11.00;99.90;;;;;;4996644;28;20870;-71
2023/04/17 07:12:25;;;;;;;19.70;13.00;;;11.00;99.90;;;;;;4983893;28;20480;-69
2023/04/17 07:14:51;;;;;;;22.97;13.03;;;11.00;99.90;;;;;;5001609;28;20218;-70
2023/04/17 07:17:17;;;;;;;17.13;12.30;;;11.10;99.90;;;;;;4998426;28;20580;-71
2023/04/17 07:19:42;;;;;;;19.50;11.60;;;11.10;99.90;;;;;;5000830;28;20363;-71
2023/04/17 07:22:08;;;;;;;16.03;11.00;;;11.10;99.90;;;;;;4996950;28;20475;-71
2023/04/17 07:24:34;;;;;;;17.70;11.03;;;11.10;99.90;;;;;;5001171;28;20221;-70
2023/04/17 07:27:02;;;;;;;14.27;9.10;;;11.10;99.90;;;;;;4984618;28;20469;-70
2023/04/17 07:29:28;;;;;;;14.70;11.10;;;11.10;99.90;;;;;;5001735;28;20233;-69
2023/04/17 07:31:54;;;;;;;13.73;9.60;;;11.10;99.90;;;;;;4997603;28;20786;-71
2023/04/17 07:34:20;;;;;;;14.60;9.60;;;11.20;99.90;;;;;;5001863;28;20210;-71
2023/04/17 07:36:48;;;;;;;14.20;9.27;;;11.20;99.90;;;;;;4987575;28;20309;-69
2023/04/17 07:39:14;;;;;;;15.27;10.60;;;11.10;99.90;;;;;;4998430;28;20492;-71
2023/04/17 07:41:40;;;;;;;15.23;9.33;;;11.10;99.90;;;;;;4994126;28;20511;-69
2023/04/17 07:44:05;;;;;;;13.03;9.77;;;11.10;99.90;;;;;;5004223;28;20297;-71
2023/04/17 07:46:31;;;;;;;14.17;9.23;;;11.10;99.90;;;;;;5001094;28;20242;-71
2023/04/17 07:48:57;;;;;;;16.20;9.60;;;11.10;99.90;;;;;;5001007;28;20213;-71
2023/04/17 07:51:23;;;;;;;14.00;8.90;;;11.10;99.90;;;;;;5007475;28;20229;-71
2023/04/17 07:53:49;;;;;;;12.73;9.73;;;11.10;99.90;;;;;;4991949;28;20470;-70
2023/04/17 07:56:16;;;;;;;12.80;8.60;;;11.10;99.90;;;;;;5001915;28;20225;-71
2023/04/17 07:58:44;;;;;;;19.20;10.03;;;11.10;99.90;;;;;;5006751;28;20245;-70
2023/04/17 08:01:10;;;;;;;11.07;8.30;;;11.10;99.90;;;;;;5001439;28;20951;-71
2023/04/17 08:03:39;;;;;;;15.33;9.57;;;11.10;99.90;;;;;;4998459;28;20494;-70
2023/04/17 08:06:05;;;;;;;11.70;8.20;;;11.10;99.90;;;;;;4986153;28;20497;-71
2023/04/17 08:08:30;;;;;;;12.40;8.30;;;11.20;99.90;;;;;;5005611;28;20465;-70
2023/04/17 08:10:56;;;;;;;10.07;7.93;;;11.20;99.90;;;;;;4991877;28;20223;-69
2023/04/17 08:13:22;;;;;;;13.03;9.70;;;11.20;99.90;;;;;;4990023;28;20577;-71
2023/04/17 08:15:48;;;;;;;14.10;7.43;;;11.30;99.90;;;;;;5004944;28;20264;-71
2023/04/17 08:18:13;;;;;;;12.30;8.40;;;11.30;99.90;;;;;;4986449;28;20623;-70
2023/04/17 08:20:39;;;;;;;12.30;8.80;;;11.30;99.90;;;;;;5005066;28;20779;-70
2023/04/17 08:23:05;;;;;;;11.07;7.83;;;11.30;99.90;;;;;;5001068;28;20263;-71
2023/04/17 08:25:31;;;;;;;11.00;7.33;;;11.30;99.90;;;;;;4985875;28;20561;-71
2023/04/17 08:27:56;;;;;;;12.03;7.40;;;11.30;99.90;;;;;;4981926;28;20752;-71
2023/04/17 08:30:22;;;;;;;13.37;8.47;;;11.30;99.90;;;;;;5004781;28;20560;-71
2023/04/17 08:32:49;;;;;;;12.37;8.10;;;11.30;99.90;;;;;;5003883;28;20221;-71
2023/04/17 08:35:16;;;;;;;11.10;8.57;;;11.40;99.90;;;;;;4984172;28;20469;-70
2023/04/17 08:37:43;;;;;;;13.30;9.53;;;11.40;99.90;;;;;;5002861;28;20474;-70
2023/04/17 08:40:09;;;;;;;10.83;8.53;;;11.50;99.90;;;;;;5002405;28;20468;-69
2023/04/17 08:42:36;;;;;;;14.50;9.40;;;11.60;99.90;;;;;;5004252;28;20465;-70
2023/04/17 08:45:05;;;;;;;12.80;8.77;;;11.60;99.90;;;;;;5001489;28;20468;-71
2023/04/17 08:47:35;;;;;;;15.37;8.60;;;11.60;99.90;;;;;;4987245;28;20444;-71
2023/04/17 08:50:10;;;;;;;12.13;8.70;;;11.70;99.90;;;;;;5002054;28;20455;-71
2023/04/17 08:52:40;;;;;;;15.60;9.67;;;11.70;99.90;;;;;;4998093;28;20993;-71
2023/04/17 08:55:06;;;;;;;12.43;8.43;;;11.80;99.90;;;;;;4985665;28;20469;-71
2023/04/17 08:57:32;;;;;;;13.47;7.80;;;11.80;99.90;;;;;;5003130;28;20556;-70
2023/04/17 08:59:59;;;;;;;11.03;8.23;;;11.80;99.90;;;;;;4986391;28;20574;-71
2023/04/17 09:02:24;;;;;;;9.90;7.00;;;11.80;99.90;;;;;;5003350;28;20214;-71
2023/04/17 09:04:50;;;;;;;11.40;7.33;;;11.80;99.90;;;;;;5004167;28;20503;-71
2023/04/17 09:07:16;;;;;;;11.50;7.50;;;11.90;99.90;;;;;;5000755;28;20575;-70
2023/04/17 09:09:50;;;;;;;12.63;7.80;;;11.90;99.90;;;;;;5004698;28;20723;-70
2023/04/17 09:12:16;;;;;;;11.00;7.60;;;11.80;99.90;;;;;;4997353;28;20446;-70
2023/04/17 09:14:42;;;;;;;10.50;7.60;;;11.80;99.90;;;;;;5002653;28;20449;-71
2023/04/17 09:17:08;;;;;;;11.63;6.50;;;11.90;99.90;;;;;;5002389;28;20495;-70
2023/04/17 09:19:33;;;;;;;8.77;6.70;;;11.80;99.90;;;;;;5001316;28;20222;-71
2023/04/17 09:22:20;;;;;;;9.33;7.20;;;11.80;99.90;;;;;;5000437;28;20316;-70
2023/04/17 09:24:47;;;;;;;9.87;7.20;;;11.80;99.90;;;;;;5000343;28;20222;-71
2023/04/17 09:27:25;;;;;;;9.73;7.07;;;11.80;99.90;;;;;;5000145;28;20484;-71
2023/04/17 09:29:57;;;;;;;11.20;6.73;;;11.80;99.90;;;;;;5001752;28;20544;-71
2023/04/17 09:32:24;;;;;;;11.87;7.60;;;11.80;99.90;;;;;;5014692;28;20453;-71
2023/04/17 09:34:50;;;;;;;9.60;6.70;;;11.70;99.90;;;;;;4998338;28;20478;-70
2023/04/17 09:37:16;;;;;;;10.50;7.23;;;11.70;99.90;;;;;;4995400;28;20464;-71
2023/04/17 09:39:59;;;;;;;11.70;7.33;;;11.70;99.90;;;;;;4995672;28;20481;-71
2023/04/17 09:42:26;;;;;;;12.90;7.30;;;11.70;99.90;;;;;;4977033;28;20253;-70
2023/04/17 09:44:53;;;;;;;11.40;8.33;;;11.70;99.90;;;;;;5000300;28;20461;-69
2023/04/17 09:47:20;;;;;;;11.57;8.50;;;11.70;99.90;;;;;;4981803;28;20457;-71
2023/04/17 09:49:51;;;;;;;9.50;7.93;;;11.70;99.90;;;;;;4989851;28;20468;-71
2023/04/17 09:52:24;;;;;;;17.10;8.90;;;11.60;99.90;;;;;;5002140;28;20567;-71
2023/04/17 09:54:52;;;;;;;12.67;9.70;;;11.60;99.90;;;;;;4999540;28;20524;-71
2023/04/17 09:57:18;;;;;;;14.13;9.20;;;11.60;99.90;;;;;;4999498;28;20487;-70
2023/04/17 09:59:48;;;;;;;14.53;9.67;;;11.70;99.90;;;;;;4999911;28;20480;-70
2023/04/17 10:02:16;;;;;;;13.00;8.40;;;11.70;99.90;;;;;;4997953;28;20301;-70
2023/04/17 10:04:46;;;;;;;15.07;10.10;;;11.70;99.90;;;;;;5000955;28;20532;-70
2023/04/17 10:07:12;;;;;;;17.57;9.40;;;11.70;99.90;;;;;;5000036;28;20478;-71
2023/04/17 10:09:44;;;;;;;15.80;10.37;;;11.70;99.90;;;;;;4995146;28;20469;-70
2023/04/17 10:12:15;;;;;;;13.73;8.97;;;11.70;99.90;;;;;;4997137;28;20476;-71
2023/04/17 10:14:45;;;;;;;11.50;9.27;;;11.70;99.90;;;;;;4982030;28;20508;-70
2023/04/17 10:17:30;;;;;;;14.67;9.70;;;11.70;99.90;;;;;;4999800;28;21002;-71
2023/04/17 10:20:16;;;;;;;19.70;9.47;;;11.70;99.90;;;;;;5000041;28;20469;-74
2023/04/17 10:22:53;;;;;;;10.90;8.13;;;11.70;99.90;;;;;;4996958;28;21004;-70
2023/04/17 10:25:24;;;;;;;14.47;9.70;;;11.80;99.90;;;;;;4986115;28;20475;-71
2023/04/17 10:27:52;;;;;;;12.87;8.03;;;11.80;99.90;;;;;;4999105;28;20473;-70
2023/04/17 10:30:21;;;;;;;11.77;8.50;;;11.80;99.90;;;;;;4998876;28;20523;-72
2023/04/17 10:33:18;;;;;;;14.37;9.97;;;11.80;99.90;;;;;;4996007;28;20461;-71
2023/04/17 10:35:45;;;;;;;16.23;10.63;;;11.80;99.90;;;;;;4989303;28;20498;-71
2023/04/17 10:38:11;;;;;;;13.97;10.37;;;11.90;99.90;;;;;;4998820;28;20465;-71
2023/04/17 10:40:38;;;;;;;15.60;10.40;;;11.90;99.90;;;;;;4999357;28;20460;-71
2023/04/17 10:43:06;;;;;;;12.30;9.47;;;12.00;99.90;;;;;;4997846;28;20217;-71
2023/04/17 10:45:58;;;;;;;13.13;9.20;;;12.00;99.90;;;;;;5004059;28;20460;-70
2023/04/17 10:48:34;;;;;;;12.50;8.70;;;12.00;99.90;;;;;;4999109;28;20461;-69
2023/04/17 10:51:20;;;;;;;12.70;7.87;;;12.10;99.90;;;;;;4998689;28;20565;-70
2023/04/17 10:53:50;;;;;;;15.30;9.10;;;12.10;99.90;;;;;;4994317;28;21006;-70
2023/04/17 10:56:37;;;;;;;12.10;8.53;;;12.20;99.90;;;;;;4999372;28;20477;-71
2023/04/17 10:59:07;;;;;;;10.50;7.80;;;12.30;99.90;;;;;;4998695;28;20469;-71
2023/04/17 11:01:47;;;;;;;10.80;7.50;;;12.20;99.90;;;;;;4992039;28;20468;-70
2023/04/17 11:04:22;;;;;;;12.03;8.10;;;12.20;99.90;;;;;;4999011;28;20969;-71
2023/04/17 11:06:48;;;;;;;13.03;8.83;;;12.20;99.90;;;;;;4988667;28;20476;-69
2023/04/17 11:09:14;;;;;;;14.17;8.57;;;12.10;99.90;;;;;;4997138;28;20476;-71
2023/04/17 11:11:42;;;;;;;13.80;7.50;;;12.20;99.90;;;;;;4995961;28;20564;-69
2023/04/17 11:14:09;;;;;;;15.17;9.10;;;12.20;99.90;;;;;;4999072;28;20472;-71
2023/04/17 11:16:40;;;;;;;12.53;8.57;;;12.20;99.90;;;;;;4994984;28;20490;-69
2023/04/17 11:19:11;;;;;;;12.13;7.63;;;12.10;99.90;;;;;;4992508;28;20561;-71
2023/04/17 11:21:52;;;;;;;9.57;7.50;;;12.10;99.90;;;;;;4985540;28;20494;-70
2023/04/17 11:24:28;;;;;;;11.73;7.87;;;12.20;99.90;;;;;;4990201;28;20453;-70
2023/04/17 11:27:02;;;;;;;11.67;7.70;;;12.30;99.90;;;;;;5001564;28;20472;-70
2023/04/17 11:29:28;;;;;;;9.77;7.10;;;12.40;99.90;;;;;;4997263;28;20460;-71
2023/04/17 11:31:55;;;;;;;9.37;6.73;;;12.40;99.90;;;;;;4997739;28;20458;-71
2023/04/17 11:34:21;;;;;;;9.90;8.27;;;12.50;99.90;;;;;;5001928;28;20245;-70
2023/04/17 11:37:00;;;;;;;11.37;7.10;;;12.60;99.90;;;;;;5000889;28;20477;-70
2023/04/17 11:39:29;;;;;;;9.67;6.73;;;12.70;99.90;;;;;;5001793;28;21017;-70
2023/04/17 11:41:58;;;;;;;10.20;7.30;;;12.80;99.90;;;;;;4984874;28;20469;-70
2023/04/17 11:44:24;;;;;;;10.90;6.53;;;12.70;99.90;;;;;;4986126;28;20472;-71
2023/04/17 11:47:00;;;;;;;6.33;5.03;;;12.60;99.90;;;;;;5000498;28;20951;-71
2023/04/17 11:49:26;;;;;;;8.13;5.20;;;12.60;99.90;;;;;;4998429;28;20466;-71
2023/04/17 11:51:53;;;;;;;6.10;4.33;;;12.60;99.90;;;;;;4990224;28;20527;-71
2023/04/17 11:54:29;;;;;;;5.20;4.33;;;12.50;99.90;;;;;;5000970;28;20468;-72
2023/04/17 11:57:13;;;;;;;4.60;3.50;;;12.50;99.90;;;;;;4998591;28;20477;-71
2023/04/17 11:59:40;;;;;;;4.73;3.80;;;12.50;99.90;;;;;;4997700;28;20461;-72
2023/04/17 12:02:07;;;;;;;5.17;3.87;;;12.60;99.90;;;;;;4997072;28;20469;-70
2023/04/17 12:04:34;;;;;;;3.47;3.17;;;12.60;99.90;;;;;;4998380;28;20479;-70
2023/04/17 12:07:04;;;;;;;5.37;3.87;;;12.70;99.90;;;;;;4994806;28;20556;-70
2023/04/17 12:09:31;;;;;;;5.80;4.53;;;12.80;99.90;;;;;;4996680;28;20465;-70
2023/04/17 12:11:58;;;;;;;5.23;4.60;;;12.80;99.90;;;;;;4984519;28;20465;-72
2023/04/17 12:14:23;;;;;;;7.33;5.23;;;12.80;99.90;;;;;;5000240;28;20982;-70
2023/04/17 12:16:50;;;;;;;11.00;7.07;;;12.80;99.90;;;;;;4996535;28;20464;-70
2023/04/17 12:19:18;;;;;;;9.60;6.30;;;12.70;99.90;;;;;;4997612;28;20258;-71
2023/04/17 12:21:46;;;;;;;5.93;5.33;;;12.70;99.90;;;;;;4987662;28;20819;-71
2023/04/17 12:24:12;;;;;;;12.63;5.83;;;12.80;99.90;;;;;;4997809;28;20464;-72
2023/04/17 12:26:51;;;;;;;5.17;4.30;;;12.80;99.90;;;;;;4996367;28;20657;-69
2023/04/17 12:29:17;;;;;;;4.93;4.00;;;12.80;99.90;;;;;;4999958;28;20467;-71
2023/04/17 12:31:43;;;;;;;3.20;2.93;;;12.80;99.90;;;;;;4987427;28;20453;-70
2023/04/17 12:34:09;;;;;;;3.33;2.90;;;12.70;99.90;;;;;;4985598;28;20922;-71
2023/04/17 12:36:35;;;;;;;3.93;2.93;;;12.80;99.90;;;;;;5001597;28;20464;-71
2023/04/17 12:39:01;;;;;;;3.90;3.37;;;12.70;99.90;;;;;;5000289;28;20301;-71